Terminal Aerodrome Forecast
Issued by NWS

Home | Current Version | Previous Version | Text Only | Print | Product List | Glossary On
Versions: 1 2 3 4 5 6 7 8 9 10 11 12 13 14
000
FTUS43 KMQT 280500
TAFIWD
TAF
KIWD 280520Z 2806/2906 19003KT P6SM BKN100
     FM281300 17006KT 5SM -SN OVC025
     FM281600 16006KT 3SM -SN OVC015
     FM282200 14004KT P6SM OVC020
      AMD LTD TO CLD VIS AND WIND=

USA.gov is the U.S. government's official web portal to all federal, state and local government web resources and services.